Time;durP1;ratioP1;P1;durP2;ratioP2;P2;SDS_P1;SDS_P2;PMS_P1;PMS_P2;Temp;Humidity;BMP_temperature;BMP_pressure;BME280_temperature;BME280_humidity;BME280_pressure;Samples;Min_cycle;Max_cycle;Signal;HPM_P1;HPM_P2
2022/09/06 00:05:16;;;;;;;;;;;;;;;;;;21085271;28;19924;-63
2022/09/06 00:15:18;;;;;;;;;;;;;;;;;;21085708;28;19924;-62
2022/09/06 00:25:20;;;;;;;;;;;;;;;;;;21084364;28;19978;-62
2022/09/06 00:35:23;;;;;;;;;;;;;;;;;;21083238;28;20445;-61
2022/09/06 00:45:25;;;;;;;;;;;;;;;;;;21082539;28;19924;-60
2022/09/06 00:55:27;;;;;;;;;;;;;;;;;;21082271;28;19963;-62
2022/09/06 01:05:28;;;;;;;;;;;;;;;;;;21080836;28;20038;-62
2022/09/06 01:15:30;;;;;;;;;;;;;;;;;;21080654;28;19977;-63
2022/09/06 01:25:33;;;;;;;;;;;;;;;;;;21080415;28;19925;-63
2022/09/06 01:35:34;;;;;;;;;;;;;;;;;;21079031;28;20329;-63
2022/09/06 01:45:36;;;;;;;;;;;;;;;;;;21080442;28;20416;-61
2022/09/06 01:55:39;;;;;;;;;;;;;;;;;;21095993;28;19924;-62
2022/09/06 02:05:45;;;;;;;;;;;;;;;;;;21096034;28;19993;-62
2022/09/06 02:15:51;;;;;;;;;;;;;;;;;;21095354;28;19924;-64
2022/09/06 02:25:52;;;;;;;;;;;;;;;;;;21093191;28;19975;-61
2022/09/06 02:35:54;;;;;;;;;;;;;;;;;;21092789;28;19924;-61
2022/09/06 02:45:55;;;;;;;;;;;;;;;;;;21092121;28;19996;-61
2022/09/06 02:55:57;;;;;;;;;;;;;;;;;;21091358;28;19958;-60
2022/09/06 03:05:58;;;;;;;;;;;;;;;;;;21090239;28;19924;-60
2022/09/06 03:16:00;;;;;;;;;;;;;;;;;;21089259;28;19969;-60
2022/09/06 03:26:01;;;;;;;;;;;;;;;;;;21090334;28;20419;-61
2022/09/06 03:36:03;;;;;;;;;;;;;;;;;;21088282;28;20356;-62
2022/09/06 03:46:05;;;;;;;;;;;;;;;;;;21087641;28;19930;-61
2022/09/06 03:56:07;;;;;;;;;;;;;;;;;;21088126;28;19951;-61
2022/09/06 04:06:09;;;;;;;;;;;;;;;;;;21087211;28;19981;-60
2022/09/06 04:16:11;;;;;;;;;;;;;;;;;;21086892;28;19946;-62
2022/09/06 04:26:13;;;;;;;;;;;;;;;;;;21085907;28;20382;-61
2022/09/06 04:36:16;;;;;;;;;;;;;;;;;;21099683;28;20033;-61
2022/09/06 04:46:17;;;;;;;;;;;;;;;;;;21083382;28;19931;-62
2022/09/06 04:56:19;;;;;;;;;;;;;;;;;;21082254;28;20446;-63
2022/09/06 05:06:21;;;;;;;;;;;;;;;;;;21081212;28;19924;-61
2022/09/06 05:16:24;;;;;;;;;;;;;;;;;;21096043;28;19924;-62
2022/09/06 05:26:26;;;;;;;;;;;;;;;;;;21080753;28;20372;-62
2022/09/06 05:36:28;;;;;;;;;;;;;;;;;;21091109;28;19932;-62
2022/09/06 05:46:30;;;;;;;;;;;;;;;;;;21096452;28;19958;-62
2022/09/06 05:56:32;;;;;;;;;;;;;;;;;;21096229;28;20007;-62
2022/09/06 06:06:34;;;;;;;;;;;;;;;;;;21095628;28;19931;-60
2022/09/06 06:16:35;;;;;;;;;;;;;;;;;;21095472;28;19924;-62
2022/09/06 06:26:37;;;;;;;;;;;;;;;;;;21094173;28;20382;-62
2022/09/06 06:36:39;;;;;;;;;;;;;;;;;;21093018;28;19930;-61
2022/09/06 06:46:41;;;;;;;;;;;;;;;;;;21091296;28;19924;-61
2022/09/06 06:56:44;;;;;;;;;;;;;;;;;;21091835;28;19973;-60
2022/09/06 07:06:46;;;;;;;;;;;;;;;;;;21090348;28;19931;-62
2022/09/06 07:16:50;;;;;;;;;;;;;;;;;;21089366;28;19986;-61
2022/09/06 07:26:52;;;;;;;;;;;;;;;;;;21088812;28;20011;-61
2022/09/06 07:36:54;;;;;;;;;;;;;;;;;;21087821;28;19924;-62
2022/09/06 07:46:56;;;;;;;;;;;;;;;;;;21087837;28;20380;-62
2022/09/06 07:56:58;;;;;;;;;;;;;;;;;;21086026;28;19935;-61
2022/09/06 08:07:01;;;;;;;;;;;;;;;;;;21085408;28;20428;-63
2022/09/06 08:17:03;;;;;;;;;;;;;;;;;;21084961;28;20371;-63
2022/09/06 08:27:09;;;;;;;;;;;;;;;;;;21085145;28;20273;-62
2022/09/06 08:37:12;;;;;;;;;;;;;;;;;;21083346;28;20273;-62
2022/09/06 08:47:14;;;;;;;;;;;;;;;;;;21083112;28;19924;-62
2022/09/06 08:57:16;;;;;;;;;;;;;;;;;;21082286;28;19963;-62
2022/09/06 09:07:17;;;;;;;;;;;;;;;;;;21081388;28;19967;-62
2022/09/06 09:17:21;;;;;;;;;;;;;;;;;;21079912;28;20429;-63
2022/09/06 09:27:23;;;;;;;;;;;;;;;;;;21080949;28;19931;-61
2022/09/06 09:37:28;;;;;;;;;;;;;;;;;;21079086;28;19977;-63
2022/09/06 09:47:30;;;;;;;;;;;;;;;;;;21079364;28;20345;-60
2022/09/06 09:57:32;;;;;;;;;;;;;;;;;;21078481;28;19925;-62
2022/09/06 10:07:35;;;;;;;;;;;;;;;;;;21077817;28;19924;-62
2022/09/06 10:17:36;;;;;;;;;;;;;;;;;;21081214;28;19931;-65
2022/09/06 10:27:38;;;;;;;;;;;;;;;;;;21093705;28;20306;-63
2022/09/06 10:37:40;;;;;;;;;;;;;;;;;;21093001;28;19962;-62
2022/09/06 10:47:42;;;;;;;;;;;;;;;;;;21091824;28;20376;-61
2022/09/06 10:57:44;;;;;;;;;;;;;;;;;;21091337;28;19949;-62
2022/09/06 11:07:46;;;;;;;;;;;;;;;;;;21089441;28;19931;-62
2022/09/06 11:17:48;;;;;;;;;;;;;;;;;;21089873;28;19958;-60
2022/09/06 11:27:50;;;;;;;;;;;;;;;;;;21086996;28;19946;-62
2022/09/06 11:37:51;;;;;;;;;;;;;;;;;;21087920;28;20007;-61
2022/09/06 11:47:54;;;;;;;;;;;;;;;;;;21087871;28;20398;-60
2022/09/06 11:57:56;;;;;;;;;;;;;;;;;;21086744;28;19924;-61
2022/09/06 12:07:58;;;;;;;;;;;;;;;;;;21085376;28;19935;-61
2022/09/06 12:18:00;;;;;;;;;;;;;;;;;;21084523;28;19962;-60
2022/09/06 12:28:01;;;;;;;;;;;;;;;;;;21084389;28;20365;-62
2022/09/06 12:38:03;;;;;;;;;;;;;;;;;;21083132;28;19970;-61
2022/09/06 12:48:05;;;;;;;;;;;;;;;;;;21081605;28;19924;-62
2022/09/06 12:58:07;;;;;;;;;;;;;;;;;;21081419;28;19930;-62
2022/09/06 13:08:09;;;;;;;;;;;;;;;;;;21081246;28;19981;-60
2022/09/06 13:18:11;;;;;;;;;;;;;;;;;;21081407;28;20456;-61
2022/09/06 13:28:14;;;;;;;;;;;;;;;;;;21080169;28;19977;-62
2022/09/06 13:38:16;;;;;;;;;;;;;;;;;;21084521;28;19931;-62
2022/09/06 13:48:18;;;;;;;;;;;;;;;;;;21081774;28;19943;-62
2022/09/06 13:58:20;;;;;;;;;;;;;;;;;;21091852;28;19924;-62
2022/09/06 14:08:22;;;;;;;;;;;;;;;;;;21095195;28;19924;-62
2022/09/06 14:18:23;;;;;;;;;;;;;;;;;;21094523;28;19970;-61
2022/09/06 14:28:26;;;;;;;;;;;;;;;;;;21093675;28;20058;-61
2022/09/06 14:38:28;;;;;;;;;;;;;;;;;;21093124;28;19954;-61
2022/09/06 14:48:30;;;;;;;;;;;;;;;;;;21091696;28;20280;-60
2022/09/06 14:58:31;;;;;;;;;;;;;;;;;;21090919;28;20394;-61
2022/09/06 15:08:33;;;;;;;;;;;;;;;;;;21105733;28;20036;-62
2022/09/06 15:18:34;;;;;;;;;;;;;;;;;;21089519;28;20003;-61
2022/09/06 15:28:36;;;;;;;;;;;;;;;;;;21088141;28;19950;-61
2022/09/06 15:38:38;;;;;;;;;;;;;;;;;;21087584;28;20404;-62
2022/09/06 15:48:39;;;;;;;;;;;;;;;;;;21086939;28;19924;-62
2022/09/06 15:58:41;;;;;;;;;;;;;;;;;;21101982;28;19981;-62
2022/09/06 16:08:43;;;;;;;;;;;;;;;;;;21084853;28;19947;-61
2022/09/06 16:18:47;;;;;;;;;;;;;;;;;;21084249;28;19977;-60
2022/09/06 16:28:49;;;;;;;;;;;;;;;;;;21083093;28;19931;-65
2022/09/06 16:38:51;;;;;;;;;;;;;;;;;;21079637;28;20360;-62
2022/09/06 16:48:53;;;;;;;;;;;;;;;;;;21080261;28;19924;-61
2022/09/06 16:58:55;;;;;;;;;;;;;;;;;;21077735;28;20373;-64
2022/09/06 17:08:59;;;;;;;;;;;;;;;;;;21075320;28;19931;-65
2022/09/06 17:19:01;;;;;;;;;;;;;;;;;;21077246;28;19924;-61
2022/09/06 17:29:03;;;;;;;;;;;;;;;;;;21079821;28;19924;-61
2022/09/06 17:39:05;;;;;;;;;;;;;;;;;;21079645;28;19931;-63
2022/09/06 17:49:07;;;;;;;;;;;;;;;;;;21079778;28;19990;-61
2022/09/06 17:59:09;;;;;;;;;;;;;;;;;;21079003;28;19935;-62
2022/09/06 18:09:13;;;;;;;;;;;;;;;;;;21078611;28;19924;-61
2022/09/06 18:19:15;;;;;;;;;;;;;;;;;;21078258;28;20411;-62
2022/09/06 18:29:17;;;;;;;;;;;;;;;;;;21077317;28;20269;-62
2022/09/06 18:39:19;;;;;;;;;;;;;;;;;;21080875;28;19928;-61
2022/09/06 18:49:21;;;;;;;;;;;;;;;;;;21092038;28;19924;-62
2022/09/06 18:59:23;;;;;;;;;;;;;;;;;;21091901;28;19924;-63
2022/09/06 19:09:25;;;;;;;;;;;;;;;;;;21090199;28;19932;-62
2022/09/06 19:19:27;;;;;;;;;;;;;;;;;;21089078;28;19924;-62
2022/09/06 19:29:30;;;;;;;;;;;;;;;;;;21088112;28;19928;-62
2022/09/06 19:39:32;;;;;;;;;;;;;;;;;;21086717;28;19965;-63
2022/09/06 19:49:34;;;;;;;;;;;;;;;;;;21086067;28;20378;-62
2022/09/06 19:59:38;;;;;;;;;;;;;;;;;;21085974;28;20440;-63
2022/09/06 20:09:40;;;;;;;;;;;;;;;;;;21084768;28;20265;-62
2022/09/06 20:19:41;;;;;;;;;;;;;;;;;;21083786;28;20031;-63
2022/09/06 20:29:43;;;;;;;;;;;;;;;;;;21084209;28;20015;-61
2022/09/06 20:39:47;;;;;;;;;;;;;;;;;;21083080;28;19953;-61
2022/09/06 20:49:49;;;;;;;;;;;;;;;;;;21082750;28;19928;-64
2022/09/06 20:59:51;;;;;;;;;;;;;;;;;;21082294;28;19928;-62
2022/09/06 21:09:53;;;;;;;;;;;;;;;;;;21082699;28;19924;-63
2022/09/06 21:19:55;;;;;;;;;;;;;;;;;;21080869;28;19979;-61
2022/09/06 21:29:57;;;;;;;;;;;;;;;;;;21080878;28;20388;-62
2022/09/06 21:39:59;;;;;;;;;;;;;;;;;;21079807;28;19942;-63
2022/09/06 21:50:01;;;;;;;;;;;;;;;;;;21079631;28;19978;-63
2022/09/06 22:00:03;;;;;;;;;;;;;;;;;;21079757;28;19925;-63
2022/09/06 22:10:05;;;;;;;;;;;;;;;;;;21078893;28;20024;-63
2022/09/06 22:20:07;;;;;;;;;;;;;;;;;;21092178;28;20298;-62
2022/09/06 22:30:09;;;;;;;;;;;;;;;;;;21093979;28;20379;-62
2022/09/06 22:40:11;;;;;;;;;;;;;;;;;;21093431;28;20257;-63
2022/09/06 22:50:13;;;;;;;;;;;;;;;;;;21093187;28;19974;-62
2022/09/06 23:00:14;;;;;;;;;;;;;;;;;;21094306;28;20019;-64
2022/09/06 23:10:16;;;;;;;;;;;;;;;;;;21095874;28;20014;-63
2022/09/06 23:20:18;;;;;;;;;;;;;;;;;;21090637;28;19931;-63
2022/09/06 23:30:21;;;;;;;;;;;;;;;;;;21089331;28;19924;-62
2022/09/06 23:40:22;;;;;;;;;;;;;;;;;;21088965;28;20444;-61
2022/09/06 23:50:24;;;;;;;;;;;;;;;;;;21088192;28;19924;-62
